sensor_id;sensor_type;location;lat;lon;timestamp;temperature;humidity
25753;DHT22;13600;50.816;4.416;2023-01-15T00:03:52;9.80;99.90
25753;DHT22;13600;50.816;4.416;2023-01-15T00:06:20;9.70;99.90
25753;DHT22;13600;50.816;4.416;2023-01-15T00:08:46;9.70;99.90
25753;DHT22;13600;50.816;4.416;2023-01-15T00:11:13;9.80;99.90
25753;DHT22;13600;50.816;4.416;2023-01-15T00:13:38;9.80;99.90
25753;DHT22;13600;50.816;4.416;2023-01-15T00:16:13;9.80;99.90
25753;DHT22;13600;50.816;4.416;2023-01-15T00:18:39;9.70;99.90
25753;DHT22;13600;50.816;4.416;2023-01-15T00:21:06;9.90;99.90
25753;DHT22;13600;50.816;4.416;2023-01-15T00:23:33;9.70;99.90
25753;DHT22;13600;50.816;4.416;2023-01-15T00:26:20;9.80;99.90
25753;DHT22;13600;50.816;4.416;2023-01-15T00:29:06;9.80;99.90
25753;DHT22;13600;50.816;4.416;2023-01-15T00:31:34;9.70;99.90
25753;DHT22;13600;50.816;4.416;2023-01-15T00:34:01;9.70;99.90
25753;DHT22;13600;50.816;4.416;2023-01-15T00:36:26;9.60;99.90
25753;DHT22;13600;50.816;4.416;2023-01-15T00:38:52;9.60;99.90
25753;DHT22;13600;50.816;4.416;2023-01-15T00:41:18;9.50;99.90
25753;DHT22;13600;50.816;4.416;2023-01-15T00:43:43;9.50;99.90
25753;DHT22;13600;50.816;4.416;2023-01-15T00:46:09;9.60;99.90
25753;DHT22;13600;50.816;4.416;2023-01-15T00:48:36;9.60;99.90
25753;DHT22;13600;50.816;4.416;2023-01-15T00:51:02;9.60;99.90
25753;DHT22;13600;50.816;4.416;2023-01-15T00:53:29;9.60;99.90
25753;DHT22;13600;50.816;4.416;2023-01-15T00:55:55;9.50;99.90
25753;DHT22;13600;50.816;4.416;2023-01-15T00:58:21;9.60;99.90
25753;DHT22;13600;50.816;4.416;2023-01-15T01:00:55;9.60;99.90
25753;DHT22;13600;50.816;4.416;2023-01-15T01:03:21;9.50;99.90
25753;DHT22;13600;50.816;4.416;2023-01-15T01:05:47;9.40;99.90
25753;DHT22;13600;50.816;4.416;2023-01-15T01:08:13;9.30;99.90
25753;DHT22;13600;50.816;4.416;2023-01-15T01:10:39;9.30;99.90
25753;DHT22;13600;50.816;4.416;2023-01-15T01:13:05;9.30;99.90
25753;DHT22;13600;50.816;4.416;2023-01-15T01:15:34;9.30;99.90
25753;DHT22;13600;50.816;4.416;2023-01-15T01:18:00;9.30;99.90
25753;DHT22;13600;50.816;4.416;2023-01-15T01:20:26;9.40;99.90
25753;DHT22;13600;50.816;4.416;2023-01-15T01:22:52;9.40;99.90
25753;DHT22;13600;50.816;4.416;2023-01-15T01:25:19;9.40;99.90
25753;DHT22;13600;50.816;4.416;2023-01-15T01:27:45;9.40;99.90
25753;DHT22;13600;50.816;4.416;2023-01-15T01:30:12;9.30;99.90
25753;DHT22;13600;50.816;4.416;2023-01-15T01:32:39;9.30;99.90
25753;DHT22;13600;50.816;4.416;2023-01-15T01:35:05;9.40;99.90
25753;DHT22;13600;50.816;4.416;2023-01-15T01:37:32;9.40;99.90
25753;DHT22;13600;50.816;4.416;2023-01-15T01:39:57;9.30;99.90
25753;DHT22;13600;50.816;4.416;2023-01-15T01:42:23;9.30;99.90
25753;DHT22;13600;50.816;4.416;2023-01-15T01:47:24;9.30;99.90
25753;DHT22;13600;50.816;4.416;2023-01-15T01:50:00;9.30;99.90
25753;DHT22;13600;50.816;4.416;2023-01-15T01:52:32;9.30;99.90
25753;DHT22;13600;50.816;4.416;2023-01-15T01:55:00;9.20;99.90
25753;DHT22;13600;50.816;4.416;2023-01-15T01:57:27;9.30;99.90
25753;DHT22;13600;50.816;4.416;2023-01-15T01:59:53;9.20;99.90
25753;DHT22;13600;50.816;4.416;2023-01-15T02:02:20;9.10;99.90
25753;DHT22;13600;50.816;4.416;2023-01-15T02:04:47;9.10;99.90
25753;DHT22;13600;50.816;4.416;2023-01-15T02:07:13;9.20;99.90
25753;DHT22;13600;50.816;4.416;2023-01-15T02:09:38;9.20;99.90
25753;DHT22;13600;50.816;4.416;2023-01-15T02:12:21;9.10;99.90
25753;DHT22;13600;50.816;4.416;2023-01-15T02:17:51;9.10;99.90
25753;DHT22;13600;50.816;4.416;2023-01-15T02:20:24;9.10;99.90
25753;DHT22;13600;50.816;4.416;2023-01-15T02:28:50;8.90;99.90
25753;DHT22;13600;50.816;4.416;2023-01-15T02:31:45;8.90;99.90
25753;DHT22;13600;50.816;4.416;2023-01-15T02:36:56;8.80;99.90
25753;DHT22;13600;50.816;4.416;2023-01-15T02:39:23;8.80;99.90
25753;DHT22;13600;50.816;4.416;2023-01-15T02:41:50;8.90;99.90
25753;DHT22;13600;50.816;4.416;2023-01-15T02:44:21;8.90;99.90
25753;DHT22;13600;50.816;4.416;2023-01-15T02:46:49;8.90;99.90
25753;DHT22;13600;50.816;4.416;2023-01-15T02:49:17;8.90;99.90
25753;DHT22;13600;50.816;4.416;2023-01-15T02:51:49;8.80;99.90
25753;DHT22;13600;50.816;4.416;2023-01-15T02:54:18;8.80;99.90
25753;DHT22;13600;50.816;4.416;2023-01-15T02:56:46;8.70;99.90
25753;DHT22;13600;50.816;4.416;2023-01-15T02:59:19;8.80;99.90
25753;DHT22;13600;50.816;4.416;2023-01-15T03:01:50;8.70;99.90
25753;DHT22;13600;50.816;4.416;2023-01-15T03:07:10;8.70;99.90
25753;DHT22;13600;50.816;4.416;2023-01-15T03:09:36;8.60;99.90
25753;DHT22;13600;50.816;4.416;2023-01-15T03:14:35;8.60;99.90
25753;DHT22;13600;50.816;4.416;2023-01-15T03:17:14;8.60;99.90
25753;DHT22;13600;50.816;4.416;2023-01-15T03:20:08;8.60;99.90
25753;DHT22;13600;50.816;4.416;2023-01-15T03:22:38;8.70;99.90
25753;DHT22;13600;50.816;4.416;2023-01-15T03:25:19;8.70;99.90
25753;DHT22;13600;50.816;4.416;2023-01-15T03:27:46;8.80;99.90
25753;DHT22;13600;50.816;4.416;2023-01-15T03:30:15;8.70;99.90
25753;DHT22;13600;50.816;4.416;2023-01-15T03:32:41;8.60;99.90
25753;DHT22;13600;50.816;4.416;2023-01-15T03:38:13;8.70;99.90
25753;DHT22;13600;50.816;4.416;2023-01-15T03:44:06;8.50;99.90
25753;DHT22;13600;50.816;4.416;2023-01-15T03:47:37;8.50;99.90
25753;DHT22;13600;50.816;4.416;2023-01-15T03:55:52;8.50;99.90
25753;DHT22;13600;50.816;4.416;2023-01-15T03:58:44;8.50;99.90
25753;DHT22;13600;50.816;4.416;2023-01-15T04:01:14;8.50;99.90
25753;DHT22;13600;50.816;4.416;2023-01-15T04:03:41;8.50;99.90
25753;DHT22;13600;50.816;4.416;2023-01-15T04:06:08;8.40;99.90
25753;DHT22;13600;50.816;4.416;2023-01-15T04:08:37;8.40;99.90
25753;DHT22;13600;50.816;4.416;2023-01-15T04:11:04;8.40;99.90
25753;DHT22;13600;50.816;4.416;2023-01-15T04:13:30;8.30;99.90
25753;DHT22;13600;50.816;4.416;2023-01-15T04:15:56;8.30;99.90
25753;DHT22;13600;50.816;4.416;2023-01-15T04:18:22;8.40;99.90
25753;DHT22;13600;50.816;4.416;2023-01-15T04:20:48;8.40;99.90
25753;DHT22;13600;50.816;4.416;2023-01-15T04:23:14;8.30;99.90
25753;DHT22;13600;50.816;4.416;2023-01-15T04:25:40;8.30;99.90
25753;DHT22;13600;50.816;4.416;2023-01-15T04:28:06;8.20;99.90
25753;DHT22;13600;50.816;4.416;2023-01-15T04:30:34;8.20;99.90
25753;DHT22;13600;50.816;4.416;2023-01-15T04:33:00;8.20;99.90
25753;DHT22;13600;50.816;4.416;2023-01-15T04:35:25;8.30;99.90
25753;DHT22;13600;50.816;4.416;2023-01-15T04:37:57;8.30;99.90
25753;DHT22;13600;50.816;4.416;2023-01-15T04:40:24;8.30;99.90
25753;DHT22;13600;50.816;4.416;2023-01-15T04:43:12;8.20;99.90
25753;DHT22;13600;50.816;4.416;2023-01-15T04:45:57;8.20;99.90
25753;DHT22;13600;50.816;4.416;2023-01-15T04:48:23;8.20;99.90
25753;DHT22;13600;50.816;4.416;2023-01-15T04:50:49;8.10;99.90
25753;DHT22;13600;50.816;4.416;2023-01-15T04:53:15;8.00;99.90
25753;DHT22;13600;50.816;4.416;2023-01-15T04:55:40;8.00;99.90
25753;DHT22;13600;50.816;4.416;2023-01-15T04:58:06;8.00;99.90
25753;DHT22;13600;50.816;4.416;2023-01-15T05:00:31;8.00;99.90
25753;DHT22;13600;50.816;4.416;2023-01-15T05:02:57;8.00;99.90
25753;DHT22;13600;50.816;4.416;2023-01-15T05:05:23;7.90;99.90
25753;DHT22;13600;50.816;4.416;2023-01-15T05:07:48;7.90;99.90
25753;DHT22;13600;50.816;4.416;2023-01-15T05:10:14;8.00;99.90
25753;DHT22;13600;50.816;4.416;2023-01-15T05:12:40;8.00;99.90
25753;DHT22;13600;50.816;4.416;2023-01-15T05:15:06;8.00;99.90
25753;DHT22;13600;50.816;4.416;2023-01-15T05:17:32;7.90;99.90
25753;DHT22;13600;50.816;4.416;2023-01-15T05:20:00;7.80;99.90
25753;DHT22;13600;50.816;4.416;2023-01-15T05:22:26;7.80;99.90
25753;DHT22;13600;50.816;4.416;2023-01-15T05:24:52;7.80;99.90
25753;DHT22;13600;50.816;4.416;2023-01-15T05:27:17;7.80;99.90
25753;DHT22;13600;50.816;4.416;2023-01-15T05:29:43;7.80;99.90
25753;DHT22;13600;50.816;4.416;2023-01-15T05:32:08;7.70;99.90
25753;DHT22;13600;50.816;4.416;2023-01-15T05:34:34;7.80;99.90
25753;DHT22;13600;50.816;4.416;2023-01-15T05:37:00;7.80;99.90
25753;DHT22;13600;50.816;4.416;2023-01-15T05:39:26;7.70;99.90
25753;DHT22;13600;50.816;4.416;2023-01-15T05:41:51;7.70;99.90
25753;DHT22;13600;50.816;4.416;2023-01-15T05:44:23;7.70;99.90
25753;DHT22;13600;50.816;4.416;2023-01-15T05:46:52;7.70;99.90
25753;DHT22;13600;50.816;4.416;2023-01-15T05:49:21;7.70;99.90
25753;DHT22;13600;50.816;4.416;2023-01-15T05:51:47;7.70;99.90
25753;DHT22;13600;50.816;4.416;2023-01-15T05:54:17;7.60;99.90
25753;DHT22;13600;50.816;4.416;2023-01-15T05:56:43;7.60;99.90
25753;DHT22;13600;50.816;4.416;2023-01-15T05:59:18;7.60;99.90
25753;DHT22;13600;50.816;4.416;2023-01-15T06:01:45;7.60;99.90
25753;DHT22;13600;50.816;4.416;2023-01-15T06:04:11;7.60;99.90
25753;DHT22;13600;50.816;4.416;2023-01-15T06:06:42;7.40;99.90
25753;DHT22;13600;50.816;4.416;2023-01-15T06:09:08;7.50;99.90
25753;DHT22;13600;50.816;4.416;2023-01-15T06:11:34;7.50;99.90
25753;DHT22;13600;50.816;4.416;2023-01-15T06:14:00;7.30;99.90
25753;DHT22;13600;50.816;4.416;2023-01-15T06:16:26;7.20;99.90
25753;DHT22;13600;50.816;4.416;2023-01-15T06:18:52;7.00;99.90
25753;DHT22;13600;50.816;4.416;2023-01-15T06:21:18;6.90;99.90
25753;DHT22;13600;50.816;4.416;2023-01-15T06:23:44;6.90;99.90
25753;DHT22;13600;50.816;4.416;2023-01-15T06:26:13;6.80;99.90
25753;DHT22;13600;50.816;4.416;2023-01-15T06:28:39;6.70;99.90
25753;DHT22;13600;50.816;4.416;2023-01-15T06:31:08;6.70;99.90
25753;DHT22;13600;50.816;4.416;2023-01-15T06:33:33;6.60;99.90
25753;DHT22;13600;50.816;4.416;2023-01-15T06:36:08;6.70;99.90
25753;DHT22;13600;50.816;4.416;2023-01-15T06:38:34;6.80;99.90
25753;DHT22;13600;50.816;4.416;2023-01-15T06:41:01;6.90;99.90
25753;DHT22;13600;50.816;4.416;2023-01-15T06:43:27;7.10;99.90
25753;DHT22;13600;50.816;4.416;2023-01-15T06:46:12;7.10;99.90
25753;DHT22;13600;50.816;4.416;2023-01-15T06:48:57;7.20;99.90
25753;DHT22;13600;50.816;4.416;2023-01-15T06:51:23;7.10;99.90
25753;DHT22;13600;50.816;4.416;2023-01-15T06:53:49;7.10;99.90
25753;DHT22;13600;50.816;4.416;2023-01-15T06:56:15;7.00;99.90
25753;DHT22;13600;50.816;4.416;2023-01-15T06:58:43;7.00;99.90
25753;DHT22;13600;50.816;4.416;2023-01-15T07:01:10;7.00;99.90
25753;DHT22;13600;50.816;4.416;2023-01-15T07:03:36;7.00;99.90
25753;DHT22;13600;50.816;4.416;2023-01-15T07:06:11;6.90;99.90
25753;DHT22;13600;50.816;4.416;2023-01-15T07:08:37;6.90;99.90
25753;DHT22;13600;50.816;4.416;2023-01-15T07:11:05;6.90;99.90
25753;DHT22;13600;50.816;4.416;2023-01-15T07:13:31;6.90;99.90
25753;DHT22;13600;50.816;4.416;2023-01-15T07:15:58;6.90;99.90
25753;DHT22;13600;50.816;4.416;2023-01-15T07:18:25;6.90;99.90
25753;DHT22;13600;50.816;4.416;2023-01-15T07:20:54;6.90;99.90
25753;DHT22;13600;50.816;4.416;2023-01-15T07:23:20;6.90;99.90
25753;DHT22;13600;50.816;4.416;2023-01-15T07:25:46;6.90;99.90
25753;DHT22;13600;50.816;4.416;2023-01-15T07:28:12;6.80;99.90
25753;DHT22;13600;50.816;4.416;2023-01-15T07:30:37;6.80;99.90
25753;DHT22;13600;50.816;4.416;2023-01-15T07:33:03;6.70;99.90
25753;DHT22;13600;50.816;4.416;2023-01-15T07:35:28;6.70;99.90
25753;DHT22;13600;50.816;4.416;2023-01-15T07:37:55;6.60;99.90
25753;DHT22;13600;50.816;4.416;2023-01-15T07:40:21;6.60;99.90
25753;DHT22;13600;50.816;4.416;2023-01-15T07:42:46;6.60;99.90
25753;DHT22;13600;50.816;4.416;2023-01-15T07:45:30;6.50;99.90
25753;DHT22;13600;50.816;4.416;2023-01-15T07:48:15;6.60;99.90
25753;DHT22;13600;50.816;4.416;2023-01-15T07:50:59;6.60;99.90
25753;DHT22;13600;50.816;4.416;2023-01-15T07:53:24;6.60;99.90
25753;DHT22;13600;50.816;4.416;2023-01-15T07:55:50;6.60;99.90
25753;DHT22;13600;50.816;4.416;2023-01-15T07:58:15;6.50;99.90
25753;DHT22;13600;50.816;4.416;2023-01-15T08:00:41;6.50;99.90
25753;DHT22;13600;50.816;4.416;2023-01-15T08:03:07;6.60;99.90
25753;DHT22;13600;50.816;4.416;2023-01-15T08:05:33;6.60;99.90
25753;DHT22;13600;50.816;4.416;2023-01-15T08:07:59;6.60;99.90
25753;DHT22;13600;50.816;4.416;2023-01-15T08:10:24;6.60;99.90
25753;DHT22;13600;50.816;4.416;2023-01-15T08:12:50;6.60;99.90
25753;DHT22;13600;50.816;4.416;2023-01-15T08:15:37;6.60;99.90
25753;DHT22;13600;50.816;4.416;2023-01-15T08:18:03;6.50;99.90
25753;DHT22;13600;50.816;4.416;2023-01-15T08:20:29;6.60;99.90
25753;DHT22;13600;50.816;4.416;2023-01-15T08:22:55;6.50;99.90
25753;DHT22;13600;50.816;4.416;2023-01-15T08:25:24;6.50;99.90
25753;DHT22;13600;50.816;4.416;2023-01-15T08:27:50;6.50;99.90
25753;DHT22;13600;50.816;4.416;2023-01-15T08:30:19;6.50;99.90
25753;DHT22;13600;50.816;4.416;2023-01-15T08:32:45;6.50;99.90
25753;DHT22;13600;50.816;4.416;2023-01-15T08:35:10;6.60;99.90
25753;DHT22;13600;50.816;4.416;2023-01-15T08:37:38;6.70;99.90
25753;DHT22;13600;50.816;4.416;2023-01-15T08:40:04;6.90;99.90
25753;DHT22;13600;50.816;4.416;2023-01-15T08:42:30;6.90;99.90
25753;DHT22;13600;50.816;4.416;2023-01-15T08:44:56;7.10;99.90
25753;DHT22;13600;50.816;4.416;2023-01-15T08:47:21;7.20;99.90
25753;DHT22;13600;50.816;4.416;2023-01-15T08:49:47;7.10;99.90
25753;DHT22;13600;50.816;4.416;2023-01-15T08:52:13;7.10;99.90
25753;DHT22;13600;50.816;4.416;2023-01-15T08:54:39;7.00;99.90
25753;DHT22;13600;50.816;4.416;2023-01-15T08:57:04;7.00;99.90
25753;DHT22;13600;50.816;4.416;2023-01-15T08:59:30;6.90;99.90
25753;DHT22;13600;50.816;4.416;2023-01-15T09:01:56;6.90;99.90
25753;DHT22;13600;50.816;4.416;2023-01-15T09:04:21;7.00;99.90
25753;DHT22;13600;50.816;4.416;2023-01-15T09:06:48;7.10;99.90
25753;DHT22;13600;50.816;4.416;2023-01-15T09:09:14;6.90;99.90
25753;DHT22;13600;50.816;4.416;2023-01-15T09:11:40;6.90;99.90
25753;DHT22;13600;50.816;4.416;2023-01-15T09:14:12;7.00;99.90
25753;DHT22;13600;50.816;4.416;2023-01-15T09:16:38;7.00;99.90
25753;DHT22;13600;50.816;4.416;2023-01-15T09:19:05;7.00;99.90
25753;DHT22;13600;50.816;4.416;2023-01-15T09:21:31;7.10;99.90
25753;DHT22;13600;50.816;4.416;2023-01-15T09:23:57;7.00;99.90
25753;DHT22;13600;50.816;4.416;2023-01-15T09:28:56;7.00;99.90
25753;DHT22;13600;50.816;4.416;2023-01-15T09:31:23;7.10;99.90
25753;DHT22;13600;50.816;4.416;2023-01-15T09:33:49;7.20;99.90
25753;DHT22;13600;50.816;4.416;2023-01-15T09:36:21;7.10;99.90
25753;DHT22;13600;50.816;4.416;2023-01-15T09:38:48;7.10;99.90
25753;DHT22;13600;50.816;4.416;2023-01-15T09:41:16;7.00;99.90
25753;DHT22;13600;50.816;4.416;2023-01-15T09:44:33;7.10;99.90
25753;DHT22;13600;50.816;4.416;2023-01-15T09:47:17;7.30;99.90
25753;DHT22;13600;50.816;4.416;2023-01-15T09:55:29;7.00;99.90
25753;DHT22;13600;50.816;4.416;2023-01-15T09:57:59;6.90;99.90
25753;DHT22;13600;50.816;4.416;2023-01-15T10:00:34;6.90;99.90
25753;DHT22;13600;50.816;4.416;2023-01-15T10:06:06;7.20;99.90
25753;DHT22;13600;50.816;4.416;2023-01-15T10:08:36;7.20;99.90
25753;DHT22;13600;50.816;4.416;2023-01-15T10:13:52;7.30;99.90
25753;DHT22;13600;50.816;4.416;2023-01-15T10:16:28;7.30;99.90
25753;DHT22;13600;50.816;4.416;2023-01-15T10:18:56;7.20;99.90
25753;DHT22;13600;50.816;4.416;2023-01-15T10:24:45;7.30;99.90
25753;DHT22;13600;50.816;4.416;2023-01-15T10:27:17;7.50;99.90
25753;DHT22;13600;50.816;4.416;2023-01-15T10:29:54;7.40;99.90
25753;DHT22;13600;50.816;4.416;2023-01-15T10:32:54;7.20;99.90
25753;DHT22;13600;50.816;4.416;2023-01-15T10:35:27;7.10;99.90
25753;DHT22;13600;50.816;4.416;2023-01-15T10:38:18;7.00;99.90
25753;DHT22;13600;50.816;4.416;2023-01-15T10:46:15;7.00;99.90
25753;DHT22;13600;50.816;4.416;2023-01-15T10:56:16;7.10;99.90
25753;DHT22;13600;50.816;4.416;2023-01-15T10:58:58;7.30;99.90
25753;DHT22;13600;50.816;4.416;2023-01-15T11:01:26;7.60;99.90
25753;DHT22;13600;50.816;4.416;2023-01-15T11:03:52;7.90;99.90
25753;DHT22;13600;50.816;4.416;2023-01-15T11:06:21;8.00;99.90
25753;DHT22;13600;50.816;4.416;2023-01-15T11:08:55;8.10;99.90
25753;DHT22;13600;50.816;4.416;2023-01-15T11:11:34;8.50;99.90
25753;DHT22;13600;50.816;4.416;2023-01-15T11:14:29;8.70;99.90
25753;DHT22;13600;50.816;4.416;2023-01-15T11:17:14;8.60;99.90
25753;DHT22;13600;50.816;4.416;2023-01-15T11:19:58;8.80;99.90
25753;DHT22;13600;50.816;4.416;2023-01-15T11:22:23;8.60;99.90
25753;DHT22;13600;50.816;4.416;2023-01-15T11:24:54;8.40;99.90
25753;DHT22;13600;50.816;4.416;2023-01-15T11:27:27;8.20;99.90
25753;DHT22;13600;50.816;4.416;2023-01-15T11:29:56;8.10;99.90
25753;DHT22;13600;50.816;4.416;2023-01-15T11:32:32;8.00;99.90
25753;DHT22;13600;50.816;4.416;2023-01-15T11:35:01;7.90;99.90
25753;DHT22;13600;50.816;4.416;2023-01-15T11:37:29;8.00;99.90
25753;DHT22;13600;50.816;4.416;2023-01-15T11:39:57;8.10;99.90
25753;DHT22;13600;50.816;4.416;2023-01-15T11:42:37;8.20;99.90
25753;DHT22;13600;50.816;4.416;2023-01-15T11:45:23;8.40;99.90
25753;DHT22;13600;50.816;4.416;2023-01-15T11:48:22;8.60;99.90
25753;DHT22;13600;50.816;4.416;2023-01-15T11:51:12;8.40;99.90
25753;DHT22;13600;50.816;4.416;2023-01-15T11:53:51;8.50;99.90
25753;DHT22;13600;50.816;4.416;2023-01-15T11:56:21;8.40;99.90
25753;DHT22;13600;50.816;4.416;2023-01-15T11:58:51;8.30;99.90
25753;DHT22;13600;50.816;4.416;2023-01-15T12:03:53;8.60;99.90
25753;DHT22;13600;50.816;4.416;2023-01-15T12:06:20;8.60;99.90
25753;DHT22;13600;50.816;4.416;2023-01-15T12:08:50;8.50;99.90
25753;DHT22;13600;50.816;4.416;2023-01-15T12:30:56;8.50;99.90
25753;DHT22;13600;50.816;4.416;2023-01-15T12:33:51;8.50;99.90
25753;DHT22;13600;50.816;4.416;2023-01-15T12:36:23;8.20;99.90
25753;DHT22;13600;50.816;4.416;2023-01-15T12:41:33;8.20;99.90
25753;DHT22;13600;50.816;4.416;2023-01-15T12:45:11;8.10;99.90
25753;DHT22;13600;50.816;4.416;2023-01-15T12:50:05;8.20;99.90
25753;DHT22;13600;50.816;4.416;2023-01-15T12:52:39;8.20;99.90
25753;DHT22;13600;50.816;4.416;2023-01-15T12:55:13;8.40;99.90
25753;DHT22;13600;50.816;4.416;2023-01-15T12:57:43;8.40;99.90
25753;DHT22;13600;50.816;4.416;2023-01-15T13:00:14;8.50;99.90
25753;DHT22;13600;50.816;4.416;2023-01-15T13:05:38;8.50;99.90
25753;DHT22;13600;50.816;4.416;2023-01-15T13:10:49;8.30;99.90
25753;DHT22;13600;50.816;4.416;2023-01-15T13:13:18;8.40;99.90
25753;DHT22;13600;50.816;4.416;2023-01-15T13:21:20;8.30;99.90
25753;DHT22;13600;50.816;4.416;2023-01-15T13:37:07;8.30;99.90
25753;DHT22;13600;50.816;4.416;2023-01-15T13:39:39;8.20;99.90
25753;DHT22;13600;50.816;4.416;2023-01-15T13:42:21;8.10;99.90
25753;DHT22;13600;50.816;4.416;2023-01-15T13:45:46;8.10;99.90
25753;DHT22;13600;50.816;4.416;2023-01-15T13:47:47;8.10;99.90
25753;DHT22;13600;50.816;4.416;2023-01-15T13:50:39;8.00;99.90
25753;DHT22;13600;50.816;4.416;2023-01-15T13:56:00;8.00;99.90
25753;DHT22;13600;50.816;4.416;2023-01-15T13:58:32;8.00;99.90
25753;DHT22;13600;50.816;4.416;2023-01-15T14:03:29;7.90;99.90
25753;DHT22;13600;50.816;4.416;2023-01-15T14:06:01;7.90;99.90
25753;DHT22;13600;50.816;4.416;2023-01-15T14:08:47;7.80;99.90
25753;DHT22;13600;50.816;4.416;2023-01-15T14:11:37;7.60;99.90
25753;DHT22;13600;50.816;4.416;2023-01-15T14:20:16;7.30;99.90
25753;DHT22;13600;50.816;4.416;2023-01-15T14:34:21;7.30;99.90
25753;DHT22;13600;50.816;4.416;2023-01-15T14:36:57;7.30;99.90
25753;DHT22;13600;50.816;4.416;2023-01-15T14:39:40;7.30;99.90
25753;DHT22;13600;50.816;4.416;2023-01-15T14:52:53;7.40;99.90
25753;DHT22;13600;50.816;4.416;2023-01-15T14:55:21;7.40;99.90
25753;DHT22;13600;50.816;4.416;2023-01-15T14:58:01;7.40;99.90
25753;DHT22;13600;50.816;4.416;2023-01-15T15:00:39;7.30;99.90
25753;DHT22;13600;50.816;4.416;2023-01-15T15:03:15;7.20;99.90
25753;DHT22;13600;50.816;4.416;2023-01-15T15:05:43;7.20;99.90
25753;DHT22;13600;50.816;4.416;2023-01-15T15:08:12;7.20;99.90
25753;DHT22;13600;50.816;4.416;2023-01-15T15:10:41;7.10;99.90
25753;DHT22;13600;50.816;4.416;2023-01-15T15:13:34;7.10;99.90
25753;DHT22;13600;50.816;4.416;2023-01-15T15:16:25;7.20;99.90
25753;DHT22;13600;50.816;4.416;2023-01-15T15:19:09;7.30;99.90
25753;DHT22;13600;50.816;4.416;2023-01-15T15:21:41;7.20;99.90
25753;DHT22;13600;50.816;4.416;2023-01-15T15:24:25;7.20;99.90
25753;DHT22;13600;50.816;4.416;2023-01-15T15:26:51;7.20;99.90
25753;DHT22;13600;50.816;4.416;2023-01-15T15:29:18;7.30;99.90
25753;DHT22;13600;50.816;4.416;2023-01-15T15:31:53;7.20;99.90
25753;DHT22;13600;50.816;4.416;2023-01-15T15:36:46;7.10;99.90
25753;DHT22;13600;50.816;4.416;2023-01-15T15:39:19;7.00;99.90
25753;DHT22;13600;50.816;4.416;2023-01-15T15:41:48;7.00;99.90
25753;DHT22;13600;50.816;4.416;2023-01-15T15:44:46;7.10;99.90
25753;DHT22;13600;50.816;4.416;2023-01-15T15:47:41;7.10;99.90
25753;DHT22;13600;50.816;4.416;2023-01-15T15:50:31;7.10;99.90
25753;DHT22;13600;50.816;4.416;2023-01-15T15:52:57;7.00;99.90
25753;DHT22;13600;50.816;4.416;2023-01-15T15:55:25;7.00;99.90
25753;DHT22;13600;50.816;4.416;2023-01-15T15:57:55;7.00;99.90
25753;DHT22;13600;50.816;4.416;2023-01-15T16:00:30;6.90;99.90
25753;DHT22;13600;50.816;4.416;2023-01-15T16:03:05;7.00;99.90
25753;DHT22;13600;50.816;4.416;2023-01-15T16:05:31;7.00;99.90
25753;DHT22;13600;50.816;4.416;2023-01-15T16:10:39;7.10;99.90
25753;DHT22;13600;50.816;4.416;2023-01-15T16:13:12;7.10;99.90
25753;DHT22;13600;50.816;4.416;2023-01-15T16:15:41;6.90;99.90
25753;DHT22;13600;50.816;4.416;2023-01-15T16:18:24;6.90;99.90
25753;DHT22;13600;50.816;4.416;2023-01-15T16:20:51;6.90;99.90
25753;DHT22;13600;50.816;4.416;2023-01-15T16:23:25;6.80;99.90
25753;DHT22;13600;50.816;4.416;2023-01-15T16:28:31;6.90;99.90
25753;DHT22;13600;50.816;4.416;2023-01-15T16:31:00;6.80;99.90
25753;DHT22;13600;50.816;4.416;2023-01-15T16:33:29;7.00;99.90
25753;DHT22;13600;50.816;4.416;2023-01-15T16:35:56;6.90;99.90
25753;DHT22;13600;50.816;4.416;2023-01-15T16:38:23;7.00;99.90
25753;DHT22;13600;50.816;4.416;2023-01-15T16:40:49;7.10;99.90
25753;DHT22;13600;50.816;4.416;2023-01-15T16:43:17;7.10;99.90
25753;DHT22;13600;50.816;4.416;2023-01-15T16:45:59;7.20;99.90
25753;DHT22;13600;50.816;4.416;2023-01-15T16:48:29;7.30;99.90
25753;DHT22;13600;50.816;4.416;2023-01-15T16:50:58;7.40;99.90
25753;DHT22;13600;50.816;4.416;2023-01-15T16:53:44;7.30;99.90
25753;DHT22;13600;50.816;4.416;2023-01-15T16:56:24;7.40;99.90
25753;DHT22;13600;50.816;4.416;2023-01-15T16:58:50;7.50;99.90
25753;DHT22;13600;50.816;4.416;2023-01-15T17:01:36;7.60;99.90
25753;DHT22;13600;50.816;4.416;2023-01-15T17:04:03;7.60;99.90
25753;DHT22;13600;50.816;4.416;2023-01-15T17:06:39;7.70;99.90
25753;DHT22;13600;50.816;4.416;2023-01-15T17:09:09;7.50;99.90
25753;DHT22;13600;50.816;4.416;2023-01-15T17:11:38;7.40;99.90
25753;DHT22;13600;50.816;4.416;2023-01-15T17:16:32;7.30;99.90
25753;DHT22;13600;50.816;4.416;2023-01-15T17:18:58;7.40;99.90
25753;DHT22;13600;50.816;4.416;2023-01-15T17:21:24;7.40;99.90
25753;DHT22;13600;50.816;4.416;2023-01-15T17:23:53;7.30;99.90
25753;DHT22;13600;50.816;4.416;2023-01-15T17:26:21;7.00;99.90
25753;DHT22;13600;50.816;4.416;2023-01-15T17:28:48;6.80;99.90
25753;DHT22;13600;50.816;4.416;2023-01-15T17:33:49;6.90;99.90
25753;DHT22;13600;50.816;4.416;2023-01-15T17:36:16;6.90;99.90
25753;DHT22;13600;50.816;4.416;2023-01-15T17:38:42;6.90;99.90
25753;DHT22;13600;50.816;4.416;2023-01-15T17:41:12;7.00;99.90
25753;DHT22;13600;50.816;4.416;2023-01-15T17:43:38;7.10;99.90
25753;DHT22;13600;50.816;4.416;2023-01-15T17:46:04;7.10;99.90
25753;DHT22;13600;50.816;4.416;2023-01-15T17:48:30;7.20;99.90
25753;DHT22;13600;50.816;4.416;2023-01-15T17:50:59;7.20;99.90
25753;DHT22;13600;50.816;4.416;2023-01-15T17:53:25;7.10;99.90
25753;DHT22;13600;50.816;4.416;2023-01-15T17:55:51;7.10;99.90
25753;DHT22;13600;50.816;4.416;2023-01-15T17:58:35;7.10;99.90
25753;DHT22;13600;50.816;4.416;2023-01-15T18:01:22;7.10;99.90
25753;DHT22;13600;50.816;4.416;2023-01-15T18:07:14;7.20;99.90
25753;DHT22;13600;50.816;4.416;2023-01-15T18:09:41;7.20;99.90
25753;DHT22;13600;50.816;4.416;2023-01-15T18:12:07;7.10;99.90
25753;DHT22;13600;50.816;4.416;2023-01-15T18:14:33;7.00;99.90
25753;DHT22;13600;50.816;4.416;2023-01-15T18:16:59;7.10;99.90
25753;DHT22;13600;50.816;4.416;2023-01-15T18:19:25;7.20;99.90
25753;DHT22;13600;50.816;4.416;2023-01-15T18:21:51;7.30;99.90
25753;DHT22;13600;50.816;4.416;2023-01-15T18:24:16;7.20;99.90
25753;DHT22;13600;50.816;4.416;2023-01-15T18:26:46;7.10;99.90
25753;DHT22;13600;50.816;4.416;2023-01-15T18:29:12;7.10;99.90
25753;DHT22;13600;50.816;4.416;2023-01-15T18:31:38;7.00;99.90
25753;DHT22;13600;50.816;4.416;2023-01-15T18:34:04;7.10;99.90
25753;DHT22;13600;50.816;4.416;2023-01-15T18:36:30;7.00;99.90
25753;DHT22;13600;50.816;4.416;2023-01-15T18:38:56;7.00;99.90
25753;DHT22;13600;50.816;4.416;2023-01-15T18:41:27;7.00;99.90
25753;DHT22;13600;50.816;4.416;2023-01-15T18:44:21;6.90;99.90
25753;DHT22;13600;50.816;4.416;2023-01-15T18:47:12;7.00;99.90
25753;DHT22;13600;50.816;4.416;2023-01-15T18:49:39;7.10;99.90
25753;DHT22;13600;50.816;4.416;2023-01-15T18:52:05;7.10;99.90
25753;DHT22;13600;50.816;4.416;2023-01-15T18:54:50;7.00;99.90